createdAt,value
2022-12-01T00:01:14.047Z,102086.78
2022-12-01T00:03:40.779Z,102111.03
2022-12-01T00:06:12.045Z,102118.88
2022-12-01T00:08:38.950Z,102125.75
2022-12-01T00:11:15.497Z,102110.09
2022-12-01T00:13:42.122Z,102113.56
2022-12-01T00:16:13.146Z,102118.00
2022-12-01T00:18:39.963Z,102111.03
2022-12-01T00:21:07.019Z,102106.69
2022-12-01T00:23:33.681Z,102061.56
2022-12-01T00:26:04.957Z,102108.44
2022-12-01T00:28:31.834Z,102100.63
2022-12-01T00:31:00.800Z,102079.78
2022-12-01T00:33:27.419Z,102093.66
2022-12-01T00:36:02.232Z,102099.72
2022-12-01T00:38:29.028Z,102098.75
2022-12-01T00:40:55.752Z,102104.06
2022-12-01T00:43:22.451Z,102047.66
2022-12-01T00:45:49.342Z,102082.31
2022-12-01T00:48:16.291Z,102081.50
2022-12-01T00:50:43.710Z,102084.06
2022-12-01T00:53:10.407Z,102090.06
2022-12-01T00:55:37.095Z,102058.84
2022-12-01T00:58:04.584Z,102080.59
2022-12-01T01:00:31.467Z,102057.06
2022-12-01T01:02:58.168Z,102077.84
2022-12-01T01:05:24.839Z,102080.47
2022-12-01T01:07:51.629Z,102071.84
2022-12-01T01:10:18.648Z,102074.47
2022-12-01T01:12:45.313Z,102051.06
2022-12-01T01:15:12.127Z,102053.63
2022-12-01T01:17:39.042Z,102069.28
2022-12-01T01:20:07.001Z,102049.34
2022-12-01T01:22:35.571Z,102085.78
2022-12-01T01:25:02.215Z,102073.69
2022-12-01T01:27:29.472Z,102081.44
2022-12-01T01:29:56.079Z,102095.34
2022-12-01T01:32:22.837Z,102097.97
2022-12-01T01:34:49.477Z,102104.91
2022-12-01T01:37:16.129Z,102084.06
2022-12-01T01:39:42.731Z,102075.47
2022-12-01T01:42:13.996Z,102084.97
2022-12-01T01:44:51.366Z,102109.19
2022-12-01T01:47:25.853Z,102078.84
2022-12-01T01:49:55.093Z,102105.72
2022-12-01T01:52:23.476Z,102106.66
2022-12-01T01:55:03.043Z,102096.22
2022-12-01T02:01:20.307Z,102089.31
2022-12-01T02:03:48.287Z,102097.97
2022-12-01T02:06:17.377Z,102088.44
2022-12-01T02:11:27.617Z,102088.44
2022-12-01T02:14:13.483Z,102096.25
2022-12-01T02:16:54.791Z,102094.53
2022-12-01T02:19:51.205Z,102091.88
2022-12-01T02:22:30.087Z,102087.56
2022-12-01T02:24:56.975Z,102089.38
2022-12-01T02:27:35.119Z,102085.06
2022-12-01T02:30:09.332Z,102016.66
2022-12-01T02:32:48.001Z,102078.13
2022-12-01T02:35:23.686Z,102092.94
2022-12-01T02:38:10.497Z,102102.47
2022-12-01T02:40:43.884Z,102088.66
2022-12-01T02:43:53.781Z,102098.16
2022-12-01T02:46:25.771Z,102102.47
2022-12-01T02:48:55.046Z,102093.84
2022-12-01T02:51:30.965Z,102076.50
2022-12-01T02:54:00.748Z,102109.50
2022-12-01T02:56:27.465Z,102109.47
2022-12-01T02:58:54.236Z,102079.09
2022-12-01T03:01:46.314Z,102103.44
2022-12-01T03:04:50.174Z,102068.84
2022-12-01T03:07:39.418Z,102105.25
2022-12-01T03:10:27.607Z,102106.16
2022-12-01T03:13:31.043Z,102113.94
2022-12-01T03:16:30.924Z,102106.09
2022-12-01T03:19:05.782Z,102109.63
2022-12-01T03:21:42.365Z,102112.22
2022-12-01T03:24:17.233Z,102107.88
2022-12-01T03:26:48.756Z,102107.88
2022-12-01T03:29:39.985Z,102078.41
2022-12-01T03:32:16.147Z,102113.06
2022-12-01T03:35:14.594Z,102116.53
2022-12-01T03:37:45.757Z,102112.16
2022-12-01T03:40:18.539Z,102107.06
2022-12-01T03:42:52.038Z,102107.09
2022-12-01T03:45:29.902Z,102088.84
2022-12-01T03:47:56.701Z,102094.97
2022-12-01T03:50:43.102Z,102105.34
2022-12-01T03:53:22.602Z,102108.75
2022-12-01T03:55:56.348Z,102106.16
2022-12-01T03:58:34.567Z,102106.16
2022-12-01T04:01:05.768Z,102095.72
2022-12-01T04:03:33.668Z,102104.44
2022-12-01T04:06:00.703Z,102108.78
2022-12-01T04:08:27.349Z,102107.91
2022-12-01T04:10:53.963Z,102101.84
2022-12-01T04:13:23.538Z,102101.81
2022-12-01T04:15:51.105Z,102107.91
2022-12-01T04:18:18.588Z,102107.06
2022-12-01T04:20:46.730Z,102116.53
2022-12-01T04:23:32.550Z,102115.69
2022-12-01T04:26:00.949Z,102086.19
2022-12-01T04:28:28.021Z,102107.00
2022-12-01T04:30:54.790Z,102104.44
2022-12-01T04:33:21.777Z,102107.09
2022-12-01T04:35:59.471Z,102101.84
2022-12-01T04:38:30.513Z,102096.53
2022-12-01T04:40:57.875Z,102090.41
2022-12-01T04:43:24.707Z,102083.47
2022-12-01T04:45:51.534Z,102084.41
2022-12-01T04:48:18.146Z,102074.88
2022-12-01T04:50:44.845Z,102061.84
2022-12-01T04:53:11.458Z,102071.44
2022-12-01T04:59:26.880Z,102067.00
2022-12-01T05:02:17.710Z,102098.22
2022-12-01T05:04:48.260Z,102088.69
2022-12-01T05:07:15.500Z,102082.59
2022-12-01T05:09:42.138Z,102108.66
2022-12-01T05:12:08.910Z,102095.56
2022-12-01T05:14:35.517Z,102092.16
2022-12-01T05:17:02.458Z,102077.44
2022-12-01T05:19:48.256Z,102081.72
2022-12-01T05:22:15.124Z,102092.97
2022-12-01T05:24:41.740Z,102097.31
2022-12-01T05:27:08.366Z,102093.97
2022-12-01T05:29:35.972Z,102097.31
2022-12-01T05:32:03.230Z,102095.56
2022-12-01T05:34:30.364Z,102080.81
2022-12-01T05:36:56.975Z,102079.97
2022-12-01T05:39:23.583Z,102089.50
2022-12-01T05:41:50.236Z,102050.50
2022-12-01T05:44:16.927Z,102064.44
2022-12-01T05:46:43.580Z,102090.41
2022-12-01T05:49:10.403Z,102099.88
2022-12-01T05:51:37.020Z,102087.00
2022-12-01T05:54:03.819Z,102075.66
2022-12-01T05:56:30.646Z,102103.50
2022-12-01T05:58:57.255Z,102093.00
2022-12-01T06:01:23.846Z,102088.66
2022-12-01T06:03:50.744Z,102102.53
2022-12-01T06:06:17.612Z,102108.72
2022-12-01T06:08:44.301Z,102103.50
2022-12-01T06:11:11.231Z,102081.78
2022-12-01T06:13:38.261Z,102067.91
2022-12-01T06:16:06.670Z,102094.75
2022-12-01T06:18:38.361Z,102089.50
2022-12-01T06:21:06.702Z,102095.56
2022-12-01T06:23:33.984Z,102103.31
2022-12-01T06:26:01.076Z,102093.72
2022-12-01T06:28:30.697Z,102082.44
2022-12-01T06:31:02.767Z,102096.34
2022-12-01T06:33:32.178Z,102090.34
2022-12-01T06:36:04.347Z,102093.75
2022-12-01T06:38:35.937Z,102096.47
2022-12-01T06:41:03.443Z,102089.47
2022-12-01T06:43:30.411Z,102086.09
2022-12-01T06:46:01.706Z,102061.75
2022-12-01T06:48:28.851Z,102093.06
2022-12-01T06:51:00.628Z,102106.06
2022-12-01T06:53:28.692Z,102084.41
2022-12-01T06:56:03.170Z,102108.72
2022-12-01T06:58:30.726Z,102091.38
2022-12-01T07:00:58.973Z,102106.97
2022-12-01T07:03:25.831Z,102082.69
2022-12-01T07:06:00.663Z,102111.38
2022-12-01T07:08:28.821Z,102120.84
2022-12-01T07:11:04.219Z,102082.69
2022-12-01T07:13:33.786Z,102081.78
2022-12-01T07:16:03.098Z,102119.09
2022-12-01T07:18:29.982Z,102063.63
2022-12-01T07:21:05.301Z,102098.28
2022-12-01T07:23:32.129Z,102089.56
2022-12-01T07:26:03.729Z,102120.84
2022-12-01T07:28:30.769Z,102048.09
2022-12-01T07:31:14.773Z,102079.28
2022-12-01T07:33:41.950Z,102111.31
2022-12-01T07:36:11.185Z,102139.06
2022-12-01T07:38:38.848Z,102099.13
2022-12-01T07:41:11.988Z,102132.94
2022-12-01T07:43:39.407Z,102103.56
2022-12-01T07:46:10.946Z,102136.41
2022-12-01T07:48:39.011Z,102135.59
2022-12-01T07:51:11.021Z,102091.38
2022-12-01T07:53:38.208Z,102087.03
2022-12-01T07:56:08.587Z,102122.59
2022-12-01T07:58:35.824Z,102113.03
2022-12-01T08:01:10.885Z,102111.22
2022-12-01T08:03:38.348Z,102114.59
2022-12-01T08:06:06.060Z,102136.28
2022-12-01T08:08:34.514Z,102107.75
2022-12-01T08:11:03.840Z,102097.47
2022-12-01T08:13:30.930Z,102133.88
2022-12-01T08:15:57.914Z,102119.94
2022-12-01T08:18:25.031Z,102080.94
2022-12-01T08:20:51.949Z,102108.72
2022-12-01T08:23:18.704Z,102116.50
2022-12-01T08:25:45.333Z,102112.97
2022-12-01T08:28:12.036Z,102084.41
2022-12-01T08:30:38.750Z,102152.03
2022-12-01T08:33:05.394Z,102116.47
2022-12-01T08:35:35.668Z,102136.41
2022-12-01T08:38:02.411Z,102154.66
2022-12-01T08:40:29.162Z,102146.88
2022-12-01T08:42:56.085Z,102134.75
2022-12-01T08:45:23.267Z,102123.50
2022-12-01T08:47:50.431Z,102154.75
2022-12-01T08:50:17.289Z,102169.44
2022-12-01T08:52:44.046Z,102118.28
2022-12-01T08:55:10.737Z,102141.72
2022-12-01T08:57:37.357Z,102152.19
2022-12-01T09:00:04.792Z,102148.63
2022-12-01T09:02:31.549Z,102146.94
2022-12-01T09:04:58.253Z,102132.13
2022-12-01T09:07:26.832Z,102128.72
2022-12-01T09:09:53.942Z,102153.00
2022-12-01T09:12:20.684Z,102126.94
2022-12-01T09:14:49.708Z,102093.03
2022-12-01T09:17:17.529Z,102134.56
2022-12-01T09:19:44.514Z,102099.97
2022-12-01T09:22:11.754Z,102140.81
2022-12-01T09:24:39.208Z,102162.41
2022-12-01T09:27:06.146Z,102120.72
2022-12-01T09:29:32.911Z,102092.09
2022-12-01T09:32:00.657Z,102157.19
2022-12-01T09:34:29.181Z,102099.06
2022-12-01T09:36:57.811Z,102168.38
2022-12-01T09:39:25.058Z,102140.63
2022-12-01T09:41:51.970Z,102154.47
2022-12-01T09:44:44.979Z,102164.09
2022-12-01T09:47:23.994Z,102155.31
2022-12-01T09:49:55.844Z,102164.91
2022-12-01T09:52:25.665Z,102137.13
2022-12-01T09:54:55.239Z,102141.47
2022-12-01T09:57:36.899Z,102163.16
2022-12-01T10:00:16.722Z,102162.22
2022-12-01T10:02:49.468Z,102164.75
2022-12-01T10:05:20.100Z,102112.78
2022-12-01T10:07:56.610Z,102165.69
2022-12-01T10:10:31.878Z,102173.59
2022-12-01T10:12:58.830Z,102169.19
2022-12-01T10:15:30.188Z,102123.16
2022-12-01T10:18:05.847Z,102169.00
2022-12-01T10:20:41.420Z,102142.34
2022-12-01T10:23:26.913Z,102171.91
2022-12-01T10:25:59.593Z,102170.06
2022-12-01T10:28:38.420Z,102137.13
2022-12-01T10:31:19.823Z,102162.16
2022-12-01T10:34:02.583Z,102167.50
2022-12-01T10:36:31.374Z,102159.69
2022-12-01T10:38:58.215Z,102121.50
2022-12-01T10:41:28.110Z,102126.69
2022-12-01T10:44:00.850Z,102160.56
2022-12-01T10:46:54.074Z,102168.31
2022-12-01T10:49:21.045Z,102118.00
2022-12-01T10:51:55.337Z,102154.41
2022-12-01T10:54:25.511Z,102127.56
2022-12-01T10:56:57.236Z,102120.63
2022-12-01T10:59:45.793Z,102159.63
2022-12-01T11:02:19.999Z,102156.94
2022-12-01T11:04:55.093Z,102161.22
2022-12-01T11:07:32.235Z,102154.28
2022-12-01T11:10:22.074Z,102124.75
2022-12-01T11:13:16.942Z,102143.75
2022-12-01T11:16:01.044Z,102127.34
2022-12-01T11:18:27.660Z,102156.78
2022-12-01T11:21:14.463Z,102162.81
2022-12-01T11:23:52.771Z,102131.75
2022-12-01T11:26:32.287Z,102132.50
2022-12-01T11:29:07.027Z,102164.50
2022-12-01T11:31:41.799Z,102158.41
2022-12-01T11:34:28.694Z,102160.19
2022-12-01T11:36:59.422Z,102136.78
2022-12-01T11:39:27.978Z,102148.91
2022-12-01T11:42:00.875Z,102115.06
2022-12-01T11:44:50.282Z,102122.91
2022-12-01T11:47:24.308Z,102134.88
2022-12-01T11:49:58.864Z,102140.09
2022-12-01T11:52:32.858Z,102137.50
2022-12-01T11:55:20.896Z,102102.72
2022-12-01T11:57:51.083Z,102103.75
2022-12-01T12:00:22.089Z,102128.94
2022-12-01T12:02:51.833Z,102124.63
2022-12-01T12:05:37.228Z,102121.09
2022-12-01T12:08:16.057Z,102106.34
2022-12-01T12:11:10.398Z,102109.78
2022-12-01T12:13:44.239Z,102074.25
2022-12-01T12:16:20.024Z,102109.69
2022-12-01T12:19:28.976Z,102107.84
2022-12-01T12:22:13.384Z,102107.03
2022-12-01T12:25:25.041Z,102106.25
2022-12-01T12:28:23.004Z,102075.13
2022-12-01T12:31:16.022Z,102105.44
2022-12-01T12:34:06.423Z,102078.59
2022-12-01T12:36:50.816Z,102112.34
2022-12-01T12:39:29.469Z,102045.66
2022-12-01T12:41:58.080Z,102106.16
2022-12-01T12:44:39.996Z,102074.09
2022-12-01T12:47:19.971Z,102094.06
2022-12-01T12:49:58.078Z,102052.47
2022-12-01T12:52:36.672Z,102074.13
2022-12-01T12:55:21.802Z,102102.81
2022-12-01T12:57:54.093Z,102049.97
2022-12-01T13:00:24.718Z,102103.75
2022-12-01T13:03:18.163Z,102110.56
2022-12-01T13:05:59.728Z,102107.19
2022-12-01T13:08:26.359Z,102111.38
2022-12-01T13:11:13.239Z,102082.00
2022-12-01T13:13:50.524Z,102109.72
2022-12-01T13:16:26.103Z,102097.59
2022-12-01T13:19:06.022Z,102092.47
2022-12-01T13:21:39.462Z,102082.16
2022-12-01T13:24:07.562Z,102095.94
2022-12-01T13:26:37.361Z,102105.41
2022-12-01T13:29:07.642Z,102079.44
2022-12-01T13:31:47.833Z,102114.94
2022-12-01T13:34:31.209Z,102076.81
2022-12-01T13:36:57.984Z,102048.25
2022-12-01T13:39:28.017Z,102064.69
2022-12-01T13:42:24.547Z,102104.41
2022-12-01T13:45:01.082Z,102087.13
2022-12-01T13:47:40.136Z,102096.63
2022-12-01T13:50:43.048Z,102094.00
2022-12-01T13:53:25.341Z,102090.69
2022-12-01T13:55:59.744Z,102093.09
2022-12-01T13:58:32.822Z,102093.31
2022-12-01T14:01:21.673Z,102094.94
2022-12-01T14:04:01.301Z,102035.13
2022-12-01T14:06:30.862Z,102088.72
2022-12-01T14:09:47.027Z,102092.16
2022-12-01T14:12:32.976Z,102096.44
2022-12-01T14:15:03.382Z,102051.41
2022-12-01T14:17:36.560Z,102061.88
2022-12-01T14:20:29.690Z,102091.16
2022-12-01T14:23:13.212Z,102048.16
2022-12-01T14:25:40.795Z,102091.38
2022-12-01T14:28:16.930Z,102051.50
2022-12-01T14:30:46.160Z,102086.16
2022-12-01T14:33:37.436Z,102088.66
2022-12-01T14:36:06.876Z,102045.34
2022-12-01T14:38:33.978Z,102057.53
2022-12-01T14:41:00.965Z,102041.03
2022-12-01T14:43:55.343Z,102074.81
2022-12-01T14:46:26.291Z,102035.84
2022-12-01T14:48:55.193Z,102039.38
2022-12-01T14:51:34.319Z,102015.91
2022-12-01T14:54:06.686Z,102057.31
2022-12-01T14:56:34.244Z,102053.97
2022-12-01T14:59:13.838Z,102008.03
2022-12-01T15:01:41.280Z,102052.94
2022-12-01T15:04:07.999Z,102034.72
2022-12-01T15:06:36.710Z,102031.41
2022-12-01T15:09:32.790Z,102067.69
2022-12-01T15:12:01.292Z,102028.81
2022-12-01T15:14:27.883Z,102070.59
2022-12-01T15:16:54.744Z,102036.69
2022-12-01T15:19:29.438Z,102070.47
2022-12-01T15:21:56.507Z,102044.53
2022-12-01T15:24:28.706Z,102025.59
2022-12-01T15:27:03.481Z,102065.19
2022-12-01T15:29:35.812Z,102029.66
2022-12-01T15:32:07.095Z,102033.22
2022-12-01T15:34:36.754Z,102075.66
2022-12-01T15:37:06.995Z,102057.66
2022-12-01T15:39:41.601Z,102059.25
2022-12-01T15:42:27.878Z,102078.44
2022-12-01T15:45:03.645Z,102078.38
2022-12-01T15:47:56.574Z,102080.16
2022-12-01T15:50:42.736Z,102081.00
2022-12-01T15:53:25.018Z,102079.38
2022-12-01T15:55:58.594Z,102036.91
2022-12-01T15:58:32.913Z,102070.72
2022-12-01T16:01:01.278Z,102079.28
2022-12-01T16:03:28.737Z,102061.13
2022-12-01T16:05:56.501Z,102080.28
2022-12-01T16:08:27.297Z,102057.66
2022-12-01T16:11:26.930Z,102086.38
2022-12-01T16:14:08.219Z,102080.34
2022-12-01T16:16:37.241Z,102084.66
2022-12-01T16:19:09.909Z,102094.44
2022-12-01T16:21:49.769Z,102088.22
2022-12-01T16:24:22.542Z,102035.31
2022-12-01T16:26:53.155Z,102095.94
2022-12-01T16:29:22.389Z,102092.50
2022-12-01T16:32:19.861Z,102034.41
2022-12-01T16:34:46.371Z,102050.88
2022-12-01T16:37:14.788Z,102079.53
2022-12-01T16:39:41.678Z,102054.34
2022-12-01T16:42:15.282Z,102039.63
2022-12-01T16:44:44.791Z,102095.09
2022-12-01T16:47:23.080Z,102092.47
2022-12-01T16:49:50.756Z,102087.22
2022-12-01T16:55:05.230Z,102050.06
2022-12-01T16:57:31.850Z,102030.88
2022-12-01T16:59:58.480Z,102082.06
2022-12-01T17:02:25.178Z,102049.16
2022-12-01T17:04:52.185Z,102061.97
2022-12-01T17:07:19.012Z,102052.72
2022-12-01T17:09:45.796Z,102063.78
2022-12-01T17:12:12.440Z,102057.69
2022-12-01T17:14:39.071Z,102054.22
2022-12-01T17:17:05.845Z,102038.66
2022-12-01T17:19:32.535Z,102056.00
2022-12-01T17:21:59.219Z,102081.19
2022-12-01T17:24:26.060Z,102058.69
2022-12-01T17:26:52.676Z,102054.41
2022-12-01T17:29:19.481Z,102028.34
2022-12-01T17:31:46.211Z,102067.28
2022-12-01T17:34:12.897Z,102024.78
2022-12-01T17:36:39.527Z,102046.47
2022-12-01T17:39:06.262Z,102062.91
2022-12-01T17:41:35.816Z,102062.00
2022-12-01T17:44:05.811Z,102063.84
2022-12-01T17:46:32.647Z,102072.50
2022-12-01T17:48:59.420Z,102085.38
2022-12-01T17:51:26.148Z,102056.72
2022-12-01T17:53:55.683Z,102062.09
2022-12-01T17:56:22.304Z,102061.34
2022-12-01T17:58:50.545Z,102057.81
2022-12-01T18:01:20.778Z,102085.50
2022-12-01T18:03:50.659Z,102048.34
2022-12-01T18:06:18.426Z,102064.75
2022-12-01T18:08:45.211Z,102052.56
2022-12-01T18:11:16.371Z,102073.47
2022-12-01T18:13:49.055Z,102098.53
2022-12-01T18:16:19.754Z,102021.44
2022-12-01T18:18:46.765Z,102043.06
2022-12-01T18:21:16.903Z,102092.25
2022-12-01T18:23:50.378Z,102053.44
2022-12-01T18:26:19.605Z,102082.78
2022-12-01T18:28:46.473Z,102073.31
2022-12-01T18:31:15.682Z,102091.28
2022-12-01T18:33:44.117Z,102088.88
2022-12-01T18:36:19.870Z,102080.16
2022-12-01T18:38:47.409Z,102087.22
2022-12-01T18:41:15.169Z,102073.97
2022-12-01T18:43:42.486Z,102072.38
2022-12-01T18:46:11.194Z,102089.75
2022-12-01T18:48:37.897Z,102089.78
2022-12-01T18:51:06.254Z,102091.38
2022-12-01T18:53:33.582Z,102087.09
2022-12-01T18:56:05.033Z,102049.88
2022-12-01T18:58:32.362Z,102057.75
2022-12-01T19:01:00.166Z,102088.91
2022-12-01T19:03:32.852Z,102069.00
2022-12-01T19:05:59.749Z,102057.75
2022-12-01T19:08:26.474Z,102093.22
2022-12-01T19:11:01.392Z,102105.50
2022-12-01T19:13:29.635Z,102094.13
2022-12-01T19:15:56.539Z,102042.09
2022-12-01T19:18:23.239Z,102062.81
2022-12-01T19:20:49.966Z,102089.72
2022-12-01T19:23:16.612Z,102065.44
2022-12-01T19:25:43.244Z,102043.94
2022-12-01T19:28:09.941Z,102047.53
2022-12-01T19:30:36.600Z,102079.59
2022-12-01T19:33:03.229Z,102035.13
2022-12-01T19:35:29.885Z,102074.94
2022-12-01T19:37:56.513Z,102081.09
2022-12-01T19:40:23.158Z,102044.81
2022-12-01T19:42:49.802Z,102095.88
2022-12-01T19:45:16.582Z,102072.31
2022-12-01T19:47:43.208Z,102094.84
2022-12-01T19:50:10.646Z,102055.00
2022-12-01T19:52:37.305Z,102063.72
2022-12-01T19:55:05.900Z,102055.19
2022-12-01T19:57:32.568Z,102080.16
2022-12-01T19:59:59.217Z,102078.47
2022-12-01T20:02:29.166Z,102041.19
2022-12-01T20:04:56.694Z,102088.72
2022-12-01T20:07:23.623Z,102100.94
2022-12-01T20:09:50.599Z,102058.50
2022-12-01T20:12:18.232Z,102095.78
2022-12-01T20:14:46.484Z,102084.44
2022-12-01T20:17:15.956Z,102086.16
2022-12-01T20:19:42.924Z,102079.31
2022-12-01T20:22:12.021Z,102088.88
2022-12-01T20:24:41.549Z,102095.69
2022-12-01T20:27:08.634Z,102071.47
2022-12-01T20:29:35.684Z,102101.78
2022-12-01T20:32:03.154Z,102076.66
2022-12-01T20:34:33.445Z,102098.41
2022-12-01T20:37:01.235Z,102092.25
2022-12-01T20:39:32.138Z,102097.59
2022-12-01T20:41:58.787Z,102077.53
2022-12-01T20:44:25.510Z,102095.09
2022-12-01T20:46:52.748Z,102098.44
2022-12-01T20:49:20.720Z,102109.84
2022-12-01T20:51:48.348Z,102105.44
2022-12-01T20:54:27.741Z,102101.91
2022-12-01T20:56:55.372Z,102104.47
2022-12-01T20:59:22.506Z,102111.47
2022-12-01T21:01:49.190Z,102105.63
2022-12-01T21:04:15.941Z,102110.66
2022-12-01T21:06:42.803Z,102097.66
2022-12-01T21:09:09.610Z,102115.03
2022-12-01T21:12:06.922Z,102106.19
2022-12-01T21:14:47.500Z,102119.25
2022-12-01T21:17:37.868Z,102121.06
2022-12-01T21:20:28.134Z,102123.56
2022-12-01T21:23:00.078Z,102109.63
2022-12-01T21:25:26.789Z,102108.78
2022-12-01T21:27:59.751Z,102116.50
2022-12-01T21:30:26.709Z,102097.69
2022-12-01T21:32:54.137Z,102122.84
2022-12-01T21:35:25.414Z,102123.63
2022-12-01T21:38:00.770Z,102127.13
2022-12-01T21:40:28.567Z,102129.66
2022-12-01T21:42:58.048Z,102126.19
2022-12-01T21:45:31.265Z,102112.41
2022-12-01T21:48:01.572Z,102130.63
2022-12-01T21:50:28.433Z,102134.19
2022-12-01T21:52:55.185Z,102130.63
2022-12-01T21:55:24.641Z,102135.88
2022-12-01T21:57:53.234Z,102138.34
2022-12-01T22:00:37.059Z,102110.50
2022-12-01T22:03:09.686Z,102135.69
2022-12-01T22:06:01.209Z,102135.69
2022-12-01T22:08:34.469Z,102133.22
2022-12-01T22:11:05.281Z,102129.69
2022-12-01T22:14:05.971Z,102113.16
2022-12-01T22:16:40.671Z,102134.06
2022-12-01T22:19:16.608Z,102131.41
2022-12-01T22:21:48.206Z,102112.34
2022-12-01T22:24:24.845Z,102141.16
2022-12-01T22:26:59.872Z,102134.00
2022-12-01T22:29:28.474Z,102131.41
2022-12-01T22:32:07.318Z,102137.63
2022-12-01T22:34:34.778Z,102130.78
2022-12-01T22:37:01.390Z,102128.00
2022-12-01T22:39:35.643Z,102121.84
2022-12-01T22:42:09.666Z,102104.50
2022-12-01T22:44:36.355Z,102124.41
2022-12-01T22:47:03.644Z,102130.59
2022-12-01T22:49:30.808Z,102116.59
2022-12-01T22:52:05.519Z,102127.81
2022-12-01T22:54:37.585Z,102098.31
2022-12-01T22:57:25.585Z,102118.28
2022-12-01T22:59:52.561Z,102135.72
2022-12-01T23:02:40.366Z,102130.53
2022-12-01T23:05:30.097Z,102133.00
2022-12-01T23:07:57.625Z,102115.78
2022-12-01T23:10:30.834Z,102124.44
2022-12-01T23:13:01.107Z,102133.03
2022-12-01T23:15:54.226Z,102130.47
2022-12-01T23:18:23.812Z,102133.03
2022-12-01T23:20:53.465Z,102096.63
2022-12-01T23:23:25.662Z,102135.63
2022-12-01T23:25:52.391Z,102134.75
2022-12-01T23:28:19.776Z,102135.41
2022-12-01T23:30:49.594Z,102132.91
2022-12-01T23:33:19.551Z,102141.53
2022-12-01T23:35:56.206Z,102137.88
2022-12-01T23:38:26.395Z,102138.91
2022-12-01T23:40:59.130Z,102128.53
2022-12-01T23:43:29.645Z,102135.28
2022-12-01T23:46:18.629Z,102125.75
2022-12-01T23:48:49.302Z,102130.13
2022-12-01T23:51:24.441Z,102132.63
2022-12-01T23:53:53.483Z,102129.06
2022-12-01T23:56:23.020Z,102130.88
2022-12-01T23:58:50.178Z,102096.25
